Time;durP1;ratioP1;P1;durP2;ratioP2;P2;SDS_P1;SDS_P2;PMS_P1;PMS_P2;Temp;Humidity;BMP_temperature;BMP_pressure;BME280_temperature;BME280_humidity;BME280_pressure;Samples;Min_cycle;Max_cycle;Signal;HPM_P1;HPM_P2
2022/05/14 00:02:22;;;;;;;36.55;24.88;;;;;;;;;;5053433;28;20052;-73
2022/05/14 00:05:27;;;;;;;38.95;25.17;;;;;;;;;;5053324;28;20038;-73
2022/05/14 00:08:31;;;;;;;38.17;26.05;;;;;;;;;;5052963;28;20526;-72
2022/05/14 00:14:58;;;;;;;38.80;25.00;;;;;;;;;;5052882;28;20044;-71
2022/05/14 00:18:03;;;;;;;34.17;24.35;;;;;;;;;;5052969;28;20516;-71
2022/05/14 00:21:08;;;;;;;41.92;25.65;;;;;;;;;;5053030;28;20048;-71
2022/05/14 00:24:12;;;;;;;40.50;25.65;;;;;;;;;;5053024;28;20052;-71
2022/05/14 00:27:17;;;;;;;40.47;26.05;;;;;;;;;;5052758;28;20044;-71
2022/05/14 00:30:23;;;;;;;38.80;26.42;;;;;;;;;;5040446;28;20428;-70
2022/05/14 00:33:27;;;;;;;39.72;26.90;;;;;;;;;;5052581;28;20385;-71
2022/05/14 00:36:31;;;;;;;40.03;26.27;;;;;;;;;;5052933;28;20048;-71
2022/05/14 00:39:35;;;;;;;41.67;26.50;;;;;;;;;;5052554;28;20043;-73
2022/05/14 00:42:40;;;;;;;48.95;26.63;;;;;;;;;;5052293;28;20048;-73
2022/05/14 00:45:48;;;;;;;41.22;25.77;;;;;;;;;;5040237;28;20055;-71
2022/05/14 00:48:54;;;;;;;36.67;25.38;;;;;;;;;;5051460;28;20056;-71
2022/05/14 00:52:00;;;;;;;42.70;25.33;;;;;;;;;;5052313;28;20211;-71
2022/05/14 00:55:05;;;;;;;36.40;24.73;;;;;;;;;;5040176;28;20424;-71
2022/05/14 00:58:11;;;;;;;39.90;26.60;;;;;;;;;;5052180;28;20040;-71
2022/05/14 01:01:16;;;;;;;49.85;27.33;;;;;;;;;;5052180;28;20495;-71
2022/05/14 01:04:21;;;;;;;43.97;26.98;;;;;;;;;;5051018;28;20396;-71
2022/05/14 01:07:27;;;;;;;46.53;25.27;;;;;;;;;;5051066;28;20047;-70
2022/05/14 01:10:37;;;;;;;44.88;25.38;;;;;;;;;;5050794;28;20055;-71
2022/05/14 01:13:41;;;;;;;40.03;22.40;;;;;;;;;;5051111;28;20503;-71
2022/05/14 01:16:46;;;;;;;36.70;22.05;;;;;;;;;;5039628;28;20068;-73
2022/05/14 01:19:51;;;;;;;36.30;22.30;;;;;;;;;;5051635;28;20044;-71
2022/05/14 01:22:56;;;;;;;35.85;21.95;;;;;;;;;;5051081;28;20052;-73
2022/05/14 01:26:30;;;;;;;36.25;22.40;;;;;;;;;;5050562;28;20037;-74
2022/05/14 01:29:48;;;;;;;34.67;21.98;;;;;;;;;;5050644;28;20052;-73
2022/05/14 01:33:06;;;;;;;35.92;22.35;;;;;;;;;;5050776;28;20044;-71
2022/05/14 01:36:15;;;;;;;32.60;21.00;;;;;;;;;;5050699;28;20056;-71
2022/05/14 01:39:20;;;;;;;32.60;22.42;;;;;;;;;;5039441;28;20131;-73
2022/05/14 01:42:24;;;;;;;35.90;23.48;;;;;;;;;;5050539;28;20047;-71
2022/05/14 01:45:29;;;;;;;36.60;22.42;;;;;;;;;;5051525;28;20039;-71
2022/05/14 01:48:33;;;;;;;36.10;23.45;;;;;;;;;;5050489;28;20048;-71
2022/05/14 01:51:38;;;;;;;30.75;20.15;;;;;;;;;;5050425;28;20068;-71
2022/05/14 01:54:46;;;;;;;33.28;20.98;;;;;;;;;;5050503;28;20052;-71
2022/05/14 01:57:50;;;;;;;31.70;19.75;;;;;;;;;;5049916;28;20516;-71
2022/05/14 02:00:56;;;;;;;29.05;19.00;;;;;;;;;;5038769;28;20067;-71
2022/05/14 02:04:05;;;;;;;35.00;20.80;;;;;;;;;;5038873;28;20056;-71
2022/05/14 02:07:10;;;;;;;27.30;17.80;;;;;;;;;;5038961;28;20048;-71
2022/05/14 02:10:14;;;;;;;32.38;19.42;;;;;;;;;;5049632;28;20056;-71
2022/05/14 02:13:20;;;;;;;32.05;20.17;;;;;;;;;;5038658;28;20047;-71
2022/05/14 02:16:25;;;;;;;29.95;20.00;;;;;;;;;;5050259;28;20043;-71
2022/05/14 02:19:30;;;;;;;35.58;20.05;;;;;;;;;;5049742;28;20052;-71
2022/05/14 02:22:34;;;;;;;33.78;20.15;;;;;;;;;;5049769;28;20044;-71
2022/05/14 02:25:38;;;;;;;31.10;21.23;;;;;;;;;;5050927;28;20048;-73
2022/05/14 02:28:43;;;;;;;29.00;19.25;;;;;;;;;;5049859;28;20039;-73
2022/05/14 02:31:47;;;;;;;32.72;19.85;;;;;;;;;;5050679;28;20055;-71
2022/05/14 02:34:52;;;;;;;30.00;20.70;;;;;;;;;;5050070;28;20044;-71
2022/05/14 02:37:56;;;;;;;34.78;20.70;;;;;;;;;;5049851;28;20053;-72
2022/05/14 02:41:01;;;;;;;34.03;20.33;;;;;;;;;;5050467;28;20192;-71
2022/05/14 02:44:05;;;;;;;30.20;19.40;;;;;;;;;;5050730;28;20044;-71
2022/05/14 02:47:10;;;;;;;33.00;19.67;;;;;;;;;;5050597;28;20048;-71
2022/05/14 02:50:15;;;;;;;35.55;19.88;;;;;;;;;;5049419;28;20306;-71
2022/05/14 02:53:19;;;;;;;34.13;21.20;;;;;;;;;;5050624;28;20392;-71
2022/05/14 02:56:23;;;;;;;33.97;22.23;;;;;;;;;;5050534;28;20496;-71
2022/05/14 02:59:28;;;;;;;34.25;20.85;;;;;;;;;;5049605;28;20040;-73
2022/05/14 03:02:32;;;;;;;31.35;20.85;;;;;;;;;;5050437;28;20048;-71
2022/05/14 03:05:36;;;;;;;28.48;19.50;;;;;;;;;;5049302;28;20112;-71
2022/05/14 03:08:41;;;;;;;32.20;19.00;;;;;;;;;;5050105;28;20056;-71
2022/05/14 03:11:45;;;;;;;31.83;20.45;;;;;;;;;;5052562;28;20044;-71
2022/05/14 03:14:49;;;;;;;29.80;20.48;;;;;;;;;;5042059;28;20424;-71
2022/05/14 03:17:54;;;;;;;33.10;20.00;;;;;;;;;;5053978;28;20052;-71
2022/05/14 03:20:58;;;;;;;30.40;20.63;;;;;;;;;;5053273;28;20048;-71
2022/05/14 03:24:04;;;;;;;33.80;20.85;;;;;;;;;;5053150;28;20500;-71
2022/05/14 03:27:08;;;;;;;32.35;20.10;;;;;;;;;;5053676;28;20044;-71
2022/05/14 03:30:12;;;;;;;36.42;23.30;;;;;;;;;;5052859;28;20413;-71
2022/05/14 03:33:16;;;;;;;34.65;22.73;;;;;;;;;;5053991;28;20048;-71
2022/05/14 03:36:21;;;;;;;37.70;24.58;;;;;;;;;;5052999;28;20386;-71
2022/05/14 03:39:25;;;;;;;36.40;24.48;;;;;;;;;;5053555;28;20432;-71
2022/05/14 03:42:31;;;;;;;42.08;26.30;;;;;;;;;;5053665;28;20048;-71
2022/05/14 03:45:35;;;;;;;36.78;26.58;;;;;;;;;;5040946;28;20047;-71
2022/05/14 03:48:40;;;;;;;45.22;25.98;;;;;;;;;;5052616;28;20128;-71
2022/05/14 03:51:45;;;;;;;38.67;24.55;;;;;;;;;;5041171;28;20067;-71
2022/05/14 03:54:50;;;;;;;40.05;25.02;;;;;;;;;;5052222;28;20070;-71
2022/05/14 03:57:54;;;;;;;45.60;26.48;;;;;;;;;;5053290;28;20056;-73
2022/05/14 04:00:59;;;;;;;48.45;24.92;;;;;;;;;;5053226;28;20515;-73
2022/05/14 04:04:03;;;;;;;39.13;24.45;;;;;;;;;;5052365;28;20039;-73
2022/05/14 04:07:07;;;;;;;38.33;22.85;;;;;;;;;;5040755;28;20508;-71
2022/05/14 04:10:12;;;;;;;41.50;23.00;;;;;;;;;;5052631;28;20055;-73
2022/05/14 04:13:17;;;;;;;36.15;22.70;;;;;;;;;;5052229;28;20131;-73
2022/05/14 04:16:23;;;;;;;36.10;22.33;;;;;;;;;;5051874;28;20045;-73
2022/05/14 04:19:28;;;;;;;37.10;21.70;;;;;;;;;;5053097;28;20052;-71
2022/05/14 04:22:32;;;;;;;35.67;22.25;;;;;;;;;;5052494;28;20120;-73
2022/05/14 04:25:37;;;;;;;42.95;22.05;;;;;;;;;;5040359;28;20612;-73
2022/05/14 04:28:42;;;;;;;31.20;21.25;;;;;;;;;;5051918;28;20040;-73
2022/05/14 04:31:46;;;;;;;37.50;20.20;;;;;;;;;;5051959;28;20052;-73
2022/05/14 04:34:51;;;;;;;26.27;19.83;;;;;;;;;;5051819;28;20048;-70
2022/05/14 04:37:56;;;;;;;34.65;19.10;;;;;;;;;;5051909;28;20048;-73
2022/05/14 04:41:00;;;;;;;31.35;18.90;;;;;;;;;;5051914;28;20111;-71
2022/05/14 04:44:05;;;;;;;30.92;19.80;;;;;;;;;;5052162;28;20048;-73
2022/05/14 04:47:10;;;;;;;28.67;20.08;;;;;;;;;;5051878;28;20048;-73
2022/05/14 04:50:15;;;;;;;31.98;20.55;;;;;;;;;;5052034;28;20056;-73
2022/05/14 04:53:19;;;;;;;33.38;21.30;;;;;;;;;;5051545;28;20036;-73
2022/05/14 04:56:23;;;;;;;28.60;20.48;;;;;;;;;;5051413;28;20051;-73
2022/05/14 04:59:27;;;;;;;30.92;19.75;;;;;;;;;;5052213;28;20401;-73
2022/05/14 05:05:57;;;;;;;31.33;22.23;;;;;;;;;;5051112;28;20040;-72
2022/05/14 05:09:01;;;;;;;31.80;21.23;;;;;;;;;;5050552;28;20044;-72
2022/05/14 05:12:06;;;;;;;34.53;21.00;;;;;;;;;;5051937;28;20043;-71
2022/05/14 05:15:10;;;;;;;34.58;21.10;;;;;;;;;;5052461;28;20044;-71
2022/05/14 05:18:15;;;;;;;36.60;21.98;;;;;;;;;;5050553;28;20048;-71
2022/05/14 05:21:19;;;;;;;32.90;22.30;;;;;;;;;;5052371;28;20500;-72
2022/05/14 05:24:24;;;;;;;44.53;21.73;;;;;;;;;;5051866;28;20392;-71
2022/05/14 05:27:28;;;;;;;34.38;21.95;;;;;;;;;;5050693;28;20052;-72
2022/05/14 05:30:32;;;;;;;34.13;21.80;;;;;;;;;;5051197;28;20504;-72
2022/05/14 05:33:37;;;;;;;37.60;22.35;;;;;;;;;;5050741;28;20052;-69
2022/05/14 05:36:42;;;;;;;42.38;24.77;;;;;;;;;;5051504;28;20051;-71
2022/05/14 05:39:46;;;;;;;34.88;23.52;;;;;;;;;;5051412;28;20607;-71
2022/05/14 05:42:50;;;;;;;32.05;21.17;;;;;;;;;;5051183;28;20397;-70
2022/05/14 05:45:56;;;;;;;31.08;21.60;;;;;;;;;;5051182;28;20055;-71
2022/05/14 05:49:01;;;;;;;43.38;21.98;;;;;;;;;;5051097;28;20052;-70
2022/05/14 05:52:05;;;;;;;36.72;21.52;;;;;;;;;;5051364;28;20055;-71
2022/05/14 05:58:33;;;;;;;37.70;21.23;;;;;;;;;;5050749;28;20519;-71
2022/05/14 06:01:37;;;;;;;37.30;21.92;;;;;;;;;;5051052;28;20044;-71
2022/05/14 06:04:42;;;;;;;41.90;23.00;;;;;;;;;;5051187;28;20044;-70
2022/05/14 06:07:46;;;;;;;33.22;19.70;;;;;;;;;;5050925;28;20472;-70
2022/05/14 06:10:50;;;;;;;36.72;20.58;;;;;;;;;;5049844;28;20396;-71
2022/05/14 06:13:55;;;;;;;33.45;16.77;;;;;;;;;;5050451;28;20040;-71
2022/05/14 06:17:00;;;;;;;32.13;16.45;;;;;;;;;;5050792;28;20048;-71
2022/05/14 06:20:06;;;;;;;30.52;17.02;;;;;;;;;;5050534;28;20048;-71
2022/05/14 06:23:10;;;;;;;30.83;16.50;;;;;;;;;;5050758;28;20044;-72
2022/05/14 06:26:14;;;;;;;28.23;15.85;;;;;;;;;;5050571;28;20385;-71
2022/05/14 06:29:20;;;;;;;140.10;24.83;;;;;;;;;;5049744;28;20052;-66
2022/05/14 06:32:24;;;;;;;29.30;14.20;;;;;;;;;;5050410;28;20417;-68
2022/05/14 06:35:28;;;;;;;23.77;13.40;;;;;;;;;;5050654;28;20040;-66
2022/05/14 06:38:33;;;;;;;24.05;14.32;;;;;;;;;;5050399;28;20412;-66
2022/05/14 06:41:38;;;;;;;23.45;14.25;;;;;;;;;;5050400;28;20052;-66
2022/05/14 06:44:42;;;;;;;26.27;13.60;;;;;;;;;;5050962;28;20041;-67
2022/05/14 06:47:47;;;;;;;23.40;11.45;;;;;;;;;;5054681;28;20048;-66
2022/05/14 06:50:51;;;;;;;20.73;12.98;;;;;;;;;;5053565;28;20068;-66
2022/05/14 06:53:58;;;;;;;25.05;13.57;;;;;;;;;;5054370;28;20048;-68
2022/05/14 06:57:03;;;;;;;21.60;13.32;;;;;;;;;;5054440;28;20047;-67
2022/05/14 07:00:07;;;;;;;25.38;12.88;;;;;;;;;;5054263;28;20039;-66
2022/05/14 07:06:43;;;;;;;29.05;14.25;;;;;;;;;;5054261;28;20051;-64
2022/05/14 07:09:49;;;;;;;21.55;13.10;;;;;;;;;;5053691;28;20052;-63
2022/05/14 07:12:55;;;;;;;26.80;13.15;;;;;;;;;;5054209;28;20052;-64
2022/05/14 07:15:59;;;;;;;22.75;13.00;;;;;;;;;;5054186;28;20059;-65
2022/05/14 07:19:06;;;;;;;32.42;12.82;;;;;;;;;;5054134;28;20048;-65
2022/05/14 07:22:14;;;;;;;27.13;12.57;;;;;;;;;;5054006;28;20056;-64
2022/05/14 07:25:19;;;;;;;22.42;11.77;;;;;;;;;;5053965;28;20051;-66
2022/05/14 07:28:23;;;;;;;18.38;11.38;;;;;;;;;;5053691;28;20067;-64
2022/05/14 07:31:27;;;;;;;25.25;11.90;;;;;;;;;;5053513;28;20409;-66
2022/05/14 07:34:32;;;;;;;19.30;12.85;;;;;;;;;;5053529;28;20044;-66
2022/05/14 07:37:40;;;;;;;25.30;12.38;;;;;;;;;;5053377;28;20048;-67
2022/05/14 07:40:44;;;;;;;18.80;11.57;;;;;;;;;;5053741;28;20491;-66
2022/05/14 07:43:50;;;;;;;27.88;13.07;;;;;;;;;;5052983;28;20052;-67
2022/05/14 07:46:55;;;;;;;21.33;12.20;;;;;;;;;;5053397;28;20052;-65
2022/05/14 07:50:01;;;;;;;31.55;12.30;;;;;;;;;;5053223;28;20052;-66
2022/05/14 07:53:06;;;;;;;28.45;12.93;;;;;;;;;;5052901;28;20048;-67
2022/05/14 07:56:10;;;;;;;20.10;12.73;;;;;;;;;;5052148;28;20040;-64
2022/05/14 07:59:15;;;;;;;22.45;11.57;;;;;;;;;;5051533;28;20400;-65
2022/05/14 08:02:39;;;;;;;23.02;12.30;;;;;;;;;;5053241;28;20048;-65
2022/05/14 08:05:43;;;;;;;20.83;11.95;;;;;;;;;;5052941;28;20060;-65
2022/05/14 08:08:48;;;;;;;21.55;11.23;;;;;;;;;;5052711;28;20060;-65
2022/05/14 08:11:53;;;;;;;27.05;10.48;;;;;;;;;;5052713;28;20052;-65
2022/05/14 08:14:58;;;;;;;27.90;11.85;;;;;;;;;;5052466;28;20044;-65
2022/05/14 08:18:02;;;;;;;35.22;11.55;;;;;;;;;;5052820;28;20416;-65
2022/05/14 08:24:34;;;;;;;20.35;10.88;;;;;;;;;;5053152;28;20052;-65
2022/05/14 08:27:45;;;;;;;25.73;12.27;;;;;;;;;;5052591;28;20040;-64
2022/05/14 08:30:49;;;;;;;;;;;;;;;;;;5052941;28;20404;-65
2022/05/14 08:33:53;;;;;;;33.72;11.07;;;;;;;;;;5052643;28;20288;-65
2022/05/14 08:36:58;;;;;;;17.23;9.88;;;;;;;;;;5052880;28;20048;-65
2022/05/14 08:40:07;;;;;;;23.13;10.95;;;;;;;;;;5052355;28;20059;-65
2022/05/14 08:43:17;;;;;;;18.45;9.30;;;;;;;;;;5051646;28;20052;-65
2022/05/14 08:46:23;;;;;;;20.33;8.80;;;;;;;;;;5052195;28;20048;-65
2022/05/14 08:49:49;;;;;;;17.58;8.55;;;;;;;;;;5052019;28;20507;-65
2022/05/14 08:53:00;;;;;;;22.67;9.40;;;;;;;;;;5052263;28;20048;-65
2022/05/14 08:56:07;;;;;;;23.02;8.27;;;;;;;;;;5052335;28;20047;-65
2022/05/14 08:59:18;;;;;;;18.58;7.53;;;;;;;;;;5052080;28;20048;-65
2022/05/14 09:02:32;;;;;;;17.23;8.55;;;;;;;;;;5052362;28;20048;-64
2022/05/14 09:05:37;;;;;;;21.63;7.55;;;;;;;;;;5051718;28;20366;-65
2022/05/14 09:08:41;;;;;;;14.38;7.78;;;;;;;;;;5051573;28;20147;-65
2022/05/14 09:11:57;;;;;;;21.08;7.28;;;;;;;;;;5051474;28;20052;-65
2022/05/14 09:15:04;;;;;;;17.58;7.68;;;;;;;;;;5051888;28;20044;-65
2022/05/14 09:18:11;;;;;;;16.30;6.28;;;;;;;;;;5051538;28;20067;-66
2022/05/14 09:21:24;;;;;;;14.00;5.75;;;;;;;;;;5051838;28;20419;-65
2022/05/14 09:24:30;;;;;;;19.08;6.55;;;;;;;;;;5051915;28;20048;-65
2022/05/14 09:27:41;;;;;;;10.27;5.30;;;;;;;;;;5051791;28;20052;-65
2022/05/14 09:30:52;;;;;;;11.82;5.47;;;;;;;;;;5051237;28;20161;-65
2022/05/14 09:34:13;;;;;;;16.45;5.97;;;;;;;;;;5051211;28;20032;-65
2022/05/14 09:37:19;;;;;;;20.70;7.00;;;;;;;;;;5051139;28;20044;-64
2022/05/14 09:40:25;;;;;;;18.25;6.35;;;;;;;;;;5050951;28;20048;-65
2022/05/14 09:43:35;;;;;;;16.88;5.35;;;;;;;;;;5051065;28;20052;-66
2022/05/14 09:46:39;;;;;;;20.98;6.90;;;;;;;;;;5050920;28;20036;-66
2022/05/14 09:49:54;;;;;;;23.23;6.07;;;;;;;;;;5050938;28;20052;-66
2022/05/14 09:53:05;;;;;;;17.70;6.60;;;;;;;;;;5051085;28;20048;-66
2022/05/14 09:56:10;;;;;;;16.55;6.07;;;;;;;;;;5050193;28;20504;-66
2022/05/14 09:59:23;;;;;;;18.98;8.10;;;;;;;;;;5049985;28;20044;-66
2022/05/14 10:02:28;;;;;;;21.33;5.90;;;;;;;;;;5050922;28;20048;-66
2022/05/14 10:05:33;;;;;;;16.85;5.93;;;;;;;;;;5051133;28;20531;-66
2022/05/14 10:08:55;;;;;;;17.02;7.32;;;;;;;;;;5051040;28;20159;-66
2022/05/14 10:12:12;;;;;;;13.13;6.40;;;;;;;;;;5050813;28;20052;-66
2022/05/14 10:15:35;;;;;;;16.05;7.43;;;;;;;;;;5050815;28;20036;-66
2022/05/14 10:18:54;;;;;;;17.30;6.82;;;;;;;;;;5050355;28;20044;-66
2022/05/14 10:22:17;;;;;;;16.20;6.72;;;;;;;;;;5050285;28;20044;-66
2022/05/14 10:29:05;;;;;;;14.98;6.18;;;;;;;;;;5053014;28;20036;-65
2022/05/14 10:32:12;;;;;;;15.27;7.47;;;;;;;;;;5050701;28;20056;-66
2022/05/14 10:35:17;;;;;;;16.92;6.70;;;;;;;;;;5050540;28;20044;-66
2022/05/14 10:38:26;;;;;;;19.25;7.18;;;;;;;;;;5050357;28;20052;-66
2022/05/14 10:41:43;;;;;;;14.93;7.22;;;;;;;;;;5050831;28;20044;-67
2022/05/14 10:44:52;;;;;;;12.63;6.20;;;;;;;;;;5050948;28;20422;-66
2022/05/14 10:48:05;;;;;;;20.40;8.30;;;;;;;;;;5050842;28;20036;-66
2022/05/14 10:51:11;;;;;;;16.50;6.60;;;;;;;;;;5050386;28;20124;-66
2022/05/14 10:54:17;;;;;;;17.67;6.70;;;;;;;;;;5050543;28;20048;-66
2022/05/14 10:57:27;;;;;;;16.50;6.45;;;;;;;;;;5050706;28;20048;-66
2022/05/14 11:00:39;;;;;;;14.23;6.47;;;;;;;;;;5049527;28;20043;-66
2022/05/14 11:03:45;;;;;;;14.43;6.65;;;;;;;;;;5050228;28;20052;-66
2022/05/14 11:06:54;;;;;;;13.00;6.70;;;;;;;;;;5050842;28;20040;-66
2022/05/14 11:10:08;;;;;;;11.25;5.55;;;;;;;;;;5050312;28;20056;-67
2022/05/14 11:13:23;;;;;;;18.33;5.68;;;;;;;;;;5050319;28;20054;-65
2022/05/14 11:16:39;;;;;;;19.02;6.28;;;;;;;;;;5050424;28;20040;-66
2022/05/14 11:19:43;;;;;;;12.90;5.28;;;;;;;;;;5050027;28;20044;-66
2022/05/14 11:22:51;;;;;;;12.00;5.72;;;;;;;;;;5050171;28;20052;-66
2022/05/14 11:26:14;;;;;;;11.48;5.47;;;;;;;;;;5050068;28;20052;-66
2022/05/14 11:29:21;;;;;;;14.07;4.90;;;;;;;;;;5048208;28;20052;-66
2022/05/14 11:32:25;;;;;;;14.95;5.50;;;;;;;;;;5050440;28;20563;-66
2022/05/14 11:35:41;;;;;;;17.95;5.65;;;;;;;;;;5051646;28;20041;-66
2022/05/14 11:38:50;;;;;;;25.25;6.03;;;;;;;;;;5051574;28;20044;-66
2022/05/14 11:42:06;;;;;;;13.38;5.15;;;;;;;;;;5052517;28;20037;-66
2022/05/14 11:45:14;;;;;;;13.15;5.93;;;;;;;;;;5053731;28;20147;-66
2022/05/14 11:48:30;;;;;;;14.15;6.30;;;;;;;;;;5053282;28;20401;-66
2022/05/14 11:51:53;;;;;;;17.25;5.63;;;;;;;;;;5053471;28;20064;-66
2022/05/14 11:55:02;;;;;;;11.82;5.80;;;;;;;;;;5053123;28;20044;-66
2022/05/14 11:58:06;;;;;;;13.35;4.90;;;;;;;;;;5053225;28;20040;-66
2022/05/14 12:01:16;;;;;;;17.13;5.93;;;;;;;;;;5053047;28;20048;-66
2022/05/14 12:04:23;;;;;;;24.17;6.10;;;;;;;;;;5053459;28;20036;-67
2022/05/14 12:07:36;;;;;;;13.20;6.45;;;;;;;;;;5052839;28;20040;-67
2022/05/14 12:10:46;;;;;;;13.90;5.25;;;;;;;;;;5052850;28;20052;-66
2022/05/14 12:13:56;;;;;;;9.35;4.70;;;;;;;;;;5053124;28;20051;-66
2022/05/14 12:17:01;;;;;;;14.98;6.13;;;;;;;;;;5053116;28;20476;-66
2022/05/14 12:20:06;;;;;;;14.60;5.20;;;;;;;;;;5052645;28;20044;-67
2022/05/14 12:23:14;;;;;;;18.55;6.90;;;;;;;;;;5052640;28;20040;-67
2022/05/14 12:26:36;;;;;;;12.75;4.30;;;;;;;;;;5052995;28;20056;-66
2022/05/14 12:29:40;;;;;;;16.45;5.78;;;;;;;;;;5052463;28;20036;-65
2022/05/14 12:36:12;;;;;;;16.02;5.30;;;;;;;;;;5052570;28;20032;-65
2022/05/14 12:39:19;;;;;;;18.05;5.10;;;;;;;;;;5052435;28;20048;-65
2022/05/14 12:42:30;;;;;;;16.48;4.82;;;;;;;;;;5052328;28;20048;-65
2022/05/14 12:45:36;;;;;;;11.88;3.78;;;;;;;;;;5052409;28;20044;-66
2022/05/14 12:48:58;;;;;;;15.93;4.43;;;;;;;;;;5052410;28;20044;-66
2022/05/14 12:52:10;;;;;;;16.38;4.70;;;;;;;;;;5052289;28;20051;-65
2022/05/14 12:55:16;;;;;;;13.90;4.63;;;;;;;;;;5052107;28;20492;-67
2022/05/14 12:58:21;;;;;;;14.63;4.88;;;;;;;;;;5052056;28;20067;-66
2022/05/14 13:01:27;;;;;;;11.98;4.88;;;;;;;;;;5051456;28;20040;-66
2022/05/14 13:04:52;;;;;;;13.75;4.47;;;;;;;;;;5051703;28;20044;-66
2022/05/14 13:07:58;;;;;;;10.00;4.30;;;;;;;;;;5051417;28;20048;-66
2022/05/14 13:11:06;;;;;;;10.52;4.20;;;;;;;;;;5050799;28;20039;-67
2022/05/14 13:14:11;;;;;;;18.60;5.05;;;;;;;;;;5051280;28;20393;-65
2022/05/14 13:17:15;;;;;;;16.83;4.60;;;;;;;;;;5051520;28;20056;-65
2022/05/14 13:20:23;;;;;;;11.23;4.63;;;;;;;;;;5052015;28;20052;-66
2022/05/14 13:23:28;;;;;;;11.98;4.22;;;;;;;;;;5051579;28;20040;-66
2022/05/14 13:26:45;;;;;;;15.63;4.05;;;;;;;;;;5050780;28;20044;-66
2022/05/14 13:29:59;;;;;;;10.18;3.70;;;;;;;;;;5051726;28;20044;-66
2022/05/14 13:33:09;;;;;;;8.93;3.88;;;;;;;;;;5051484;28;20048;-66
2022/05/14 13:39:54;;;;;;;13.48;3.72;;;;;;;;;;5050576;28;20064;-66
2022/05/14 13:43:00;;;;;;;13.85;4.10;;;;;;;;;;5051452;28;20504;-66
2022/05/14 13:46:06;;;;;;;10.63;3.95;;;;;;;;;;5051137;28;20060;-66
2022/05/14 13:49:21;;;;;;;13.30;3.58;;;;;;;;;;5051028;28;20043;-67
2022/05/14 13:52:27;;;;;;;14.88;4.20;;;;;;;;;;5051000;28;20396;-67
2022/05/14 13:55:35;;;;;;;11.40;3.80;;;;;;;;;;5050266;28;20036;-66
2022/05/14 13:58:43;;;;;;;11.07;3.50;;;;;;;;;;5051198;28;20044;-67
2022/05/14 14:01:49;;;;;;;12.25;4.30;;;;;;;;;;5051252;28;20044;-67
2022/05/14 14:04:58;;;;;;;15.75;4.65;;;;;;;;;;5050883;28;20044;-67
2022/05/14 14:08:05;;;;;;;12.18;4.35;;;;;;;;;;5050743;28;20040;-66
2022/05/14 14:11:10;;;;;;;7.93;3.45;;;;;;;;;;5050663;28;20048;-66
2022/05/14 14:14:14;;;;;;;14.07;3.20;;;;;;;;;;5050124;28;20033;-66
2022/05/14 14:17:19;;;;;;;11.85;3.17;;;;;;;;;;5050982;28;20048;-67
2022/05/14 14:20:30;;;;;;;9.88;2.88;;;;;;;;;;5051504;28;20396;-66
2022/05/14 14:23:35;;;;;;;;;;;;;;;;;;5051183;28;20040;-66
2022/05/14 14:26:38;;;;;;;8.40;3.58;;;;;;;;;;5050680;28;19916;-67
2022/05/14 14:29:43;;;;;;;8.27;2.95;;;;;;;;;;5050569;28;20040;-67
2022/05/14 14:32:47;;;;;;;10.00;3.65;;;;;;;;;;5050678;28;20045;-66
2022/05/14 14:35:52;;;;;;;11.63;3.70;;;;;;;;;;5050492;28;20095;-67
2022/05/14 14:38:56;;;;;;;14.18;3.45;;;;;;;;;;5050364;28;20056;-67
2022/05/14 14:42:00;;;;;;;17.70;5.57;;;;;;;;;;5050879;28;20048;-67
2022/05/14 14:45:11;;;;;;;9.93;4.03;;;;;;;;;;5050789;28;20400;-66
2022/05/14 14:48:17;;;;;;;;;;;;;;;;;;5050567;28;20033;-67
2022/05/14 14:51:24;;;;;;;8.90;4.07;;;;;;;;;;5050175;28;19924;-67
2022/05/14 14:54:28;;;;;;;17.02;3.75;;;;;;;;;;5050431;28;20485;-67
2022/05/14 14:57:33;;;;;;;8.60;3.00;;;;;;;;;;5050042;28;20044;-67
2022/05/14 15:00:43;;;;;;;9.48;3.22;;;;;;;;;;5050248;28;20041;-67
2022/05/14 15:03:56;;;;;;;10.85;4.32;;;;;;;;;;5050023;28;20394;-66
2022/05/14 15:07:02;;;;;;;13.00;3.58;;;;;;;;;;5053692;28;20056;-67
2022/05/14 15:10:07;;;;;;;11.57;4.90;;;;;;;;;;5053810;28;20060;-67
2022/05/14 15:13:13;;;;;;;17.05;4.57;;;;;;;;;;5054023;28;20060;-67
2022/05/14 15:16:18;;;;;;;14.82;4.28;;;;;;;;;;5053779;28;20036;-67
2022/05/14 15:19:22;;;;;;;10.23;3.65;;;;;;;;;;5053407;28;20409;-67
2022/05/14 15:22:27;;;;;;;9.25;4.00;;;;;;;;;;5054123;28;20036;-67
2022/05/14 15:25:31;;;;;;;11.85;3.90;;;;;;;;;;5053673;28;20033;-67
2022/05/14 15:28:35;;;;;;;13.18;3.70;;;;;;;;;;5053659;28;20048;-66
2022/05/14 15:31:43;;;;;;;8.85;3.40;;;;;;;;;;5053699;28;20058;-66
2022/05/14 15:34:48;;;;;;;11.32;4.47;;;;;;;;;;5053769;28;20033;-66
2022/05/14 15:37:52;;;;;;;13.00;4.47;;;;;;;;;;5053803;28;20059;-66
2022/05/14 15:40:56;;;;;;;8.65;3.90;;;;;;;;;;5053609;28;20392;-66
2022/05/14 15:44:05;;;;;;;9.00;3.83;;;;;;;;;;5053448;28;20037;-67
2022/05/14 15:47:14;;;;;;;19.55;9.25;;;;;;;;;;5053460;28;20037;-68
2022/05/14 15:50:19;;;;;;;22.70;3.92;;;;;;;;;;5053283;28;20052;-68
2022/05/14 15:53:25;;;;;;;20.45;3.70;;;;;;;;;;5053179;28;20524;-68
2022/05/14 15:56:31;;;;;;;10.10;3.60;;;;;;;;;;5053307;28;20044;-67
2022/05/14 15:59:36;;;;;;;17.38;4.15;;;;;;;;;;5053385;28;20401;-68
2022/05/14 16:02:42;;;;;;;13.40;4.05;;;;;;;;;;5052301;28;20412;-68
2022/05/14 16:05:47;;;;;;;14.07;3.65;;;;;;;;;;5053075;28;20063;-67
2022/05/14 16:08:52;;;;;;;16.58;4.03;;;;;;;;;;5052855;28;20527;-67
2022/05/14 16:18:43;;;;;;;14.18;4.95;;;;;;;;;;5051677;28;20183;-68
2022/05/14 16:21:50;;;;;;;11.32;3.42;;;;;;;;;;5051504;28;20040;-68
2022/05/14 16:24:54;;;;;;;13.10;3.60;;;;;;;;;;5052312;28;20218;-68
2022/05/14 16:27:59;;;;;;;12.27;3.92;;;;;;;;;;5052592;28;20036;-66
2022/05/14 16:31:03;;;;;;;10.43;4.00;;;;;;;;;;5052664;28;20406;-66
2022/05/14 16:34:07;;;;;;;21.40;4.60;;;;;;;;;;5052492;28;20079;-66
2022/05/14 16:37:11;;;;;;;17.02;5.05;;;;;;;;;;5052563;28;20389;-66
2022/05/14 16:40:16;;;;;;;11.88;3.75;;;;;;;;;;5052035;28;20040;-66
2022/05/14 16:43:20;;;;;;;25.63;6.45;;;;;;;;;;5052320;28;20040;-66
2022/05/14 16:46:25;;;;;;;11.18;3.88;;;;;;;;;;5052137;28;20612;-65
2022/05/14 16:49:29;;;;;;;13.90;3.92;;;;;;;;;;5051018;28;20499;-66
2022/05/14 16:52:33;;;;;;;21.88;4.68;;;;;;;;;;5052142;28;20060;-66
2022/05/14 16:55:38;;;;;;;12.30;3.80;;;;;;;;;;5051940;28;20043;-66
2022/05/14 16:58:43;;;;;;;17.33;5.20;;;;;;;;;;5051687;28;20484;-66
2022/05/14 17:01:48;;;;;;;12.82;4.50;;;;;;;;;;5051879;28;20040;-66
2022/05/14 17:04:52;;;;;;;11.40;3.65;;;;;;;;;;5051694;28;20043;-66
2022/05/14 17:07:57;;;;;;;8.73;4.70;;;;;;;;;;5051704;28;20052;-66
2022/05/14 17:11:01;;;;;;;10.93;4.47;;;;;;;;;;5051536;28;20048;-66
2022/05/14 17:14:06;;;;;;;8.10;3.92;;;;;;;;;;5051717;28;20078;-66
2022/05/14 17:17:10;;;;;;;14.98;5.30;;;;;;;;;;5051661;28;20378;-66
2022/05/14 17:20:17;;;;;;;17.02;6.70;;;;;;;;;;5051440;28;20072;-66
2022/05/14 17:23:21;;;;;;;12.55;4.25;;;;;;;;;;5051512;28;20044;-66
2022/05/14 17:26:25;;;;;;;17.83;5.45;;;;;;;;;;5050692;28;20536;-66
2022/05/14 17:29:29;;;;;;;17.52;4.82;;;;;;;;;;5050337;28;20059;-66
2022/05/14 17:32:33;;;;;;;14.80;4.07;;;;;;;;;;5050888;28;20425;-66
2022/05/14 17:35:38;;;;;;;14.23;4.75;;;;;;;;;;5051315;28;20040;-66
2022/05/14 17:42:05;;;;;;;16.30;4.63;;;;;;;;;;5050649;28;20040;-66
2022/05/14 17:45:10;;;;;;;15.02;4.85;;;;;;;;;;5051041;28;20207;-66
2022/05/14 17:48:14;;;;;;;16.65;4.82;;;;;;;;;;5050446;28;20052;-64
2022/05/14 17:51:18;;;;;;;19.95;5.18;;;;;;;;;;5050434;28;20428;-66
2022/05/14 17:54:25;;;;;;;15.18;4.95;;;;;;;;;;5050995;28;20048;-66
2022/05/14 17:57:29;;;;;;;19.15;5.53;;;;;;;;;;5050563;28;20048;-66
2022/05/14 18:00:36;;;;;;;20.67;5.50;;;;;;;;;;5050892;28;20043;-70
2022/05/14 18:03:42;;;;;;;22.58;5.10;;;;;;;;;;5050069;28;20044;-71
2022/05/14 18:06:47;;;;;;;14.35;5.07;;;;;;;;;;5050440;28;20056;-70
2022/05/14 18:09:51;;;;;;;13.40;5.07;;;;;;;;;;5049410;28;20519;-70
2022/05/14 18:12:56;;;;;;;12.15;4.55;;;;;;;;;;5050290;28;20067;-70
2022/05/14 18:16:01;;;;;;;16.20;4.68;;;;;;;;;;5050486;28;20099;-70
2022/05/14 18:19:05;;;;;;;22.98;5.45;;;;;;;;;;5050546;28;20052;-70
2022/05/14 18:22:10;;;;;;;18.35;6.30;;;;;;;;;;5049420;28;20040;-70
2022/05/14 18:25:17;;;;;;;24.60;7.72;;;;;;;;;;5050797;28;20048;-70
2022/05/14 18:28:23;;;;;;;19.80;6.57;;;;;;;;;;5038117;28;20044;-70
2022/05/14 18:31:29;;;;;;;17.80;6.63;;;;;;;;;;5050177;28;20381;-70
2022/05/14 18:34:34;;;;;;;19.35;6.28;;;;;;;;;;5050528;28;20139;-70
2022/05/14 18:37:38;;;;;;;17.85;7.25;;;;;;;;;;5049978;28;20040;-70
2022/05/14 18:40:44;;;;;;;17.95;6.18;;;;;;;;;;5051512;28;20401;-70
2022/05/14 18:43:48;;;;;;;16.80;6.68;;;;;;;;;;5054111;28;20036;-69
2022/05/14 18:46:53;;;;;;;27.73;6.47;;;;;;;;;;5054090;28;20040;-69
2022/05/14 18:49:57;;;;;;;27.52;8.20;;;;;;;;;;5053265;28;20044;-69
2022/05/14 18:53:02;;;;;;;24.48;7.90;;;;;;;;;;5054231;28;20068;-69
2022/05/14 18:56:06;;;;;;;13.20;7.65;;;;;;;;;;5054337;28;20055;-69